Time;durP1;ratioP1;P1;durP2;ratioP2;P2;SDS_P1;SDS_P2;PMS_P1;PMS_P2;Temp;Humidity;BMP_temperature;BMP_pressure;BME280_temperature;BME280_humidity;BME280_pressure;Samples;Min_cycle;Max_cycle;Signal;HPM_P1;HPM_P2
2022/10/19 00:00:00;;;;;;;2.93;0.83;;;;;;;;;;5055402;28;20453;-71
2022/10/19 00:02:28;;;;;;;3.93;0.93;;;;;;;;;;5054596;28;20453;-72
2022/10/19 00:04:55;;;;;;;11.23;1.90;;;;;;;;;;5054610;28;20458;-72
2022/10/19 00:07:22;;;;;;;3.57;0.90;;;;;;;;;;5053854;28;20878;-72
2022/10/19 00:09:49;;;;;;;2.90;0.67;;;;;;;;;;5053764;28;20454;-72
2022/10/19 00:12:16;;;;;;;3.73;1.13;;;;;;;;;;5053728;28;21006;-71
2022/10/19 00:14:43;;;;;;;8.03;1.20;;;;;;;;;;5054315;28;20456;-71
2022/10/19 00:17:10;;;;;;;6.10;1.20;;;;;;;;;;5053713;28;20492;-71
2022/10/19 00:19:38;;;;;;;3.30;1.07;;;;;;;;;;5053239;28;20873;-71
2022/10/19 00:22:05;;;;;;;5.37;0.80;;;;;;;;;;5053992;28;20780;-72
2022/10/19 00:24:32;;;;;;;2.40;0.90;;;;;;;;;;5054147;28;20457;-73
2022/10/19 00:26:59;;;;;;;3.80;0.83;;;;;;;;;;5053895;28;20489;-72
2022/10/19 00:29:26;;;;;;;2.97;0.93;;;;;;;;;;5054268;28;20461;-72
2022/10/19 00:31:54;;;;;;;7.07;1.10;;;;;;;;;;5053967;28;20464;-72
2022/10/19 00:34:22;;;;;;;4.20;1.03;;;;;;;;;;5054350;28;20458;-72
2022/10/19 00:36:49;;;;;;;3.10;1.00;;;;;;;;;;5065317;28;20456;-72
2022/10/19 00:39:18;;;;;;;4.23;1.17;;;;;;;;;;5073154;28;20533;-72
2022/10/19 00:41:45;;;;;;;5.33;1.00;;;;;;;;;;5073362;28;20453;-72
2022/10/19 00:44:31;;;;;;;1.73;0.80;;;;;;;;;;5073501;28;20475;-72
2022/10/19 00:46:59;;;;;;;2.57;0.90;;;;;;;;;;5073840;28;20484;-72
2022/10/19 00:49:27;;;;;;;3.73;0.90;;;;;;;;;;5073645;28;20451;-72
2022/10/19 00:51:56;;;;;;;4.03;0.80;;;;;;;;;;5073541;28;20459;-72
2022/10/19 00:54:23;;;;;;;4.50;0.50;;;;;;;;;;5073669;28;20470;-72
2022/10/19 00:56:52;;;;;;;5.10;0.90;;;;;;;;;;5073392;28;20452;-72
2022/10/19 00:59:23;;;;;;;4.20;1.40;;;;;;;;;;5073993;28;20520;-72
2022/10/19 01:01:51;;;;;;;4.67;1.57;;;;;;;;;;5075906;28;20448;-72
2022/10/19 01:04:18;;;;;;;6.20;0.70;;;;;;;;;;5079809;28;20456;-72
2022/10/19 01:06:45;;;;;;;5.33;1.03;;;;;;;;;;5079857;28;20484;-72
2022/10/19 01:09:13;;;;;;;4.13;0.80;;;;;;;;;;5079902;28;20571;-72
2022/10/19 01:11:44;;;;;;;4.27;0.90;;;;;;;;;;5079848;28;20754;-72
2022/10/19 01:14:19;;;;;;;3.50;1.10;;;;;;;;;;5080653;28;20455;-72
2022/10/19 01:16:50;;;;;;;5.17;0.83;;;;;;;;;;5079782;28;20455;-72
2022/10/19 01:19:28;;;;;;;9.03;1.03;;;;;;;;;;5079173;28;20456;-72
2022/10/19 01:22:04;;;;;;;5.40;1.10;;;;;;;;;;5079422;28;20459;-72
2022/10/19 01:24:51;;;;;;;3.57;1.00;;;;;;;;;;5080636;28;20499;-72
2022/10/19 01:27:35;;;;;;;3.10;0.80;;;;;;;;;;5079851;28;20482;-72
2022/10/19 01:30:08;;;;;;;3.47;0.93;;;;;;;;;;5079809;28;20976;-72
2022/10/19 01:32:42;;;;;;;2.70;0.97;;;;;;;;;;5080247;28;20869;-72
2022/10/19 01:35:12;;;;;;;3.53;0.90;;;;;;;;;;5079695;28;20571;-72
2022/10/19 01:37:47;;;;;;;4.27;1.20;;;;;;;;;;5080256;28;20455;-72
2022/10/19 01:40:18;;;;;;;4.90;0.90;;;;;;;;;;5079896;28;20546;-72
2022/10/19 01:42:51;;;;;;;1.90;0.70;;;;;;;;;;5079872;28;20463;-72
2022/10/19 01:45:20;;;;;;;4.30;0.97;;;;;;;;;;5080312;28;20547;-72
2022/10/19 01:47:48;;;;;;;4.67;0.90;;;;;;;;;;5079720;28;20484;-71
2022/10/19 01:50:17;;;;;;;3.63;1.00;;;;;;;;;;5079697;28;20824;-72
2022/10/19 01:52:44;;;;;;;4.43;0.90;;;;;;;;;;5079522;28;21001;-72
2022/10/19 01:55:13;;;;;;;6.40;1.03;;;;;;;;;;5080251;28;20452;-72
2022/10/19 01:57:46;;;;;;;7.90;1.57;;;;;;;;;;5079279;28;20872;-72
2022/10/19 02:00:15;;;;;;;5.13;0.80;;;;;;;;;;5079920;28;20884;-72
2022/10/19 02:02:44;;;;;;;6.10;1.13;;;;;;;;;;5079660;28;20452;-72
2022/10/19 02:05:12;;;;;;;5.03;0.90;;;;;;;;;;5080247;28;20466;-71
2022/10/19 02:07:40;;;;;;;3.30;0.80;;;;;;;;;;5079248;28;20540;-72
2022/10/19 02:10:07;;;;;;;6.60;0.97;;;;;;;;;;5079796;28;20522;-72
2022/10/19 02:12:34;;;;;;;7.80;1.30;;;;;;;;;;5079146;28;20452;-72
2022/10/19 02:15:04;;;;;;;2.50;0.70;;;;;;;;;;5075972;28;20448;-72
2022/10/19 02:17:33;;;;;;;6.63;1.00;;;;;;;;;;5076674;28;20449;-72
2022/10/19 02:20:02;;;;;;;3.43;0.80;;;;;;;;;;5076437;28;20472;-72
2022/10/19 02:22:29;;;;;;;6.43;2.20;;;;;;;;;;5076419;28;20522;-71
2022/10/19 02:24:56;;;;;;;12.83;1.73;;;;;;;;;;5075952;28;20445;-71
2022/10/19 02:27:23;;;;;;;5.33;1.20;;;;;;;;;;5076135;28;20496;-71
2022/10/19 02:29:50;;;;;;;6.17;0.90;;;;;;;;;;5075551;28;20907;-72
2022/10/19 02:32:17;;;;;;;3.83;0.87;;;;;;;;;;5075797;28;20452;-71
2022/10/19 02:34:44;;;;;;;7.30;0.97;;;;;;;;;;5075223;28;20456;-71
2022/10/19 02:37:12;;;;;;;5.17;0.90;;;;;;;;;;5075725;28;20893;-71
2022/10/19 02:39:39;;;;;;;4.80;0.83;;;;;;;;;;5075312;28;20437;-71
2022/10/19 02:42:10;;;;;;;1.70;0.83;;;;;;;;;;5076506;28;20719;-71
2022/10/19 02:44:40;;;;;;;6.23;1.00;;;;;;;;;;5075788;28;20468;-71
2022/10/19 02:47:10;;;;;;;3.73;1.17;;;;;;;;;;5076055;28;20493;-71
2022/10/19 02:49:38;;;;;;;5.47;1.03;;;;;;;;;;5076134;28;20448;-71
2022/10/19 02:52:06;;;;;;;4.50;1.27;;;;;;;;;;5075791;28;20460;-71
2022/10/19 02:54:34;;;;;;;11.33;1.10;;;;;;;;;;5075829;28;20444;-71
2022/10/19 02:57:01;;;;;;;7.13;1.40;;;;;;;;;;5075403;28;20861;-71
2022/10/19 02:59:28;;;;;;;6.17;1.30;;;;;;;;;;5075683;28;20453;-72
2022/10/19 03:01:56;;;;;;;3.07;1.80;;;;;;;;;;5076200;28;20484;-71
2022/10/19 03:04:22;;;;;;;3.57;0.80;;;;;;;;;;5075349;28;20456;-71
2022/10/19 03:06:49;;;;;;;8.37;1.30;;;;;;;;;;5075177;28;20530;-72
2022/10/19 03:09:16;;;;;;;3.50;1.30;;;;;;;;;;5075205;28;20463;-71
2022/10/19 03:11:44;;;;;;;6.43;1.10;;;;;;;;;;5075248;28;20491;-72
2022/10/19 03:14:11;;;;;;;4.63;1.10;;;;;;;;;;5075471;28;20456;-71
2022/10/19 03:16:38;;;;;;;3.50;0.80;;;;;;;;;;5075052;28;20461;-71
2022/10/19 03:19:06;;;;;;;6.40;1.13;;;;;;;;;;5074786;28;20498;-72
2022/10/19 03:21:34;;;;;;;7.27;1.23;;;;;;;;;;5075336;28;20471;-72
2022/10/19 03:24:01;;;;;;;14.13;2.40;;;;;;;;;;5075359;28;20449;-72
2022/10/19 03:26:28;;;;;;;8.33;1.97;;;;;;;;;;5073594;28;20504;-71
2022/10/19 03:28:56;;;;;;;9.40;1.20;;;;;;;;;;5074704;28;20448;-72
2022/10/19 03:31:23;;;;;;;6.23;1.47;;;;;;;;;;5075497;28;20464;-72
2022/10/19 03:33:50;;;;;;;7.23;1.40;;;;;;;;;;5075448;28;21165;-71
2022/10/19 03:36:19;;;;;;;7.20;1.10;;;;;;;;;;5075612;28;20526;-71
2022/10/19 03:38:47;;;;;;;6.00;1.03;;;;;;;;;;5075929;28;20531;-71
2022/10/19 03:41:14;;;;;;;6.37;1.00;;;;;;;;;;5075469;28;20457;-71
2022/10/19 03:43:40;;;;;;;6.07;1.83;;;;;;;;;;5075973;28;20734;-72
2022/10/19 03:46:08;;;;;;;4.43;1.20;;;;;;;;;;5074401;28;20725;-71
2022/10/19 03:48:36;;;;;;;5.30;1.17;;;;;;;;;;5074588;28;20448;-71
2022/10/19 03:51:03;;;;;;;4.60;1.23;;;;;;;;;;5074661;28;20479;-71
2022/10/19 03:53:30;;;;;;;7.87;2.50;;;;;;;;;;5074076;28;20472;-71
2022/10/19 03:56:04;;;;;;;4.50;1.97;;;;;;;;;;5074769;28;20895;-72
2022/10/19 03:58:33;;;;;;;9.63;1.57;;;;;;;;;;5074053;28;20484;-71
2022/10/19 04:01:00;;;;;;;7.30;1.13;;;;;;;;;;5074382;28;20492;-71
2022/10/19 04:03:28;;;;;;;3.30;1.33;;;;;;;;;;5075008;28;20445;-71
2022/10/19 04:06:02;;;;;;;10.90;1.50;;;;;;;;;;5072399;28;20461;-71
2022/10/19 04:08:31;;;;;;;8.33;1.57;;;;;;;;;;5074449;28;20488;-72
2022/10/19 04:11:01;;;;;;;2.67;1.50;;;;;;;;;;5074695;28;20470;-72
2022/10/19 04:13:29;;;;;;;5.40;1.33;;;;;;;;;;5074271;28;20459;-72
2022/10/19 04:15:55;;;;;;;6.87;1.40;;;;;;;;;;5075124;28;20452;-72
2022/10/19 04:18:23;;;;;;;10.93;0.90;;;;;;;;;;5073366;28;20461;-72
2022/10/19 04:20:55;;;;;;;12.63;1.43;;;;;;;;;;5073813;28;20836;-72
2022/10/19 04:23:22;;;;;;;11.83;1.67;;;;;;;;;;5074474;28;20474;-72
2022/10/19 04:25:49;;;;;;;4.23;1.60;;;;;;;;;;5074893;28;20460;-72
2022/10/19 04:28:16;;;;;;;11.43;1.23;;;;;;;;;;5074620;28;20523;-72
2022/10/19 04:30:46;;;;;;;8.27;2.00;;;;;;;;;;5074083;28;20484;-72
2022/10/19 04:33:13;;;;;;;5.13;1.50;;;;;;;;;;5073192;28;20484;-72
2022/10/19 04:35:40;;;;;;;7.30;1.90;;;;;;;;;;5073714;28;20449;-72
2022/10/19 04:38:13;;;;;;;4.63;1.50;;;;;;;;;;5073230;28;20445;-72
2022/10/19 04:40:42;;;;;;;8.97;1.23;;;;;;;;;;5073592;28;20464;-73
2022/10/19 04:43:13;;;;;;;4.50;1.60;;;;;;;;;;5073643;28;20440;-73
2022/10/19 04:45:40;;;;;;;5.13;0.90;;;;;;;;;;5072940;28;20473;-71
2022/10/19 04:48:07;;;;;;;6.20;1.03;;;;;;;;;;5073840;28;20492;-72
2022/10/19 04:50:34;;;;;;;4.57;1.03;;;;;;;;;;5073534;28;20461;-72
2022/10/19 04:53:01;;;;;;;3.43;0.90;;;;;;;;;;5073045;28;20449;-71
2022/10/19 04:55:31;;;;;;;3.70;0.90;;;;;;;;;;5073519;28;20464;-71
2022/10/19 04:57:58;;;;;;;5.67;1.27;;;;;;;;;;5072774;28;20522;-72
2022/10/19 05:00:26;;;;;;;5.80;1.83;;;;;;;;;;5072417;28;20464;-74
2022/10/19 05:02:53;;;;;;;6.80;0.90;;;;;;;;;;5074416;28;20499;-74
2022/10/19 05:05:19;;;;;;;1.93;0.80;;;;;;;;;;5074133;28;20951;-73
2022/10/19 05:07:48;;;;;;;4.20;0.90;;;;;;;;;;5074281;28;20776;-73
2022/10/19 05:10:15;;;;;;;7.33;0.90;;;;;;;;;;5073883;28;20869;-73
2022/10/19 05:12:45;;;;;;;7.30;1.10;;;;;;;;;;5074849;28;20452;-75
2022/10/19 05:15:15;;;;;;;6.20;1.00;;;;;;;;;;5074648;28;20744;-73
2022/10/19 05:17:42;;;;;;;4.80;1.00;;;;;;;;;;5072648;28;20872;-75
2022/10/19 05:20:10;;;;;;;4.03;0.70;;;;;;;;;;5064981;28;20902;-73
2022/10/19 05:22:37;;;;;;;2.23;0.90;;;;;;;;;;5052623;28;20453;-72
2022/10/19 05:25:09;;;;;;;3.90;1.10;;;;;;;;;;5069889;28;20463;-72
2022/10/19 05:27:39;;;;;;;3.60;0.90;;;;;;;;;;5071371;28;20495;-74
2022/10/19 05:30:08;;;;;;;6.67;1.47;;;;;;;;;;5072636;28;20449;-73
2022/10/19 05:32:37;;;;;;;3.83;1.00;;;;;;;;;;5072772;28;20468;-75
2022/10/19 05:35:08;;;;;;;6.50;1.00;;;;;;;;;;5071937;28;20452;-73
2022/10/19 05:37:35;;;;;;;2.57;0.90;;;;;;;;;;5071894;28;20461;-74
2022/10/19 05:40:02;;;;;;;3.67;1.00;;;;;;;;;;5072238;28;20896;-74
2022/10/19 05:42:30;;;;;;;2.60;0.77;;;;;;;;;;5071009;28;20503;-74
2022/10/19 05:44:59;;;;;;;4.37;0.90;;;;;;;;;;5072416;28;20865;-74
2022/10/19 05:47:32;;;;;;;4.63;0.90;;;;;;;;;;5072861;28;20479;-74
2022/10/19 05:50:00;;;;;;;2.77;0.60;;;;;;;;;;5073579;28;20460;-71
2022/10/19 05:52:30;;;;;;;6.90;1.17;;;;;;;;;;5075283;28;20460;-73
2022/10/19 05:54:57;;;;;;;3.10;0.80;;;;;;;;;;5075889;28;20547;-72
2022/10/19 05:57:25;;;;;;;2.10;0.60;;;;;;;;;;5076380;28;20452;-74
2022/10/19 05:59:58;;;;;;;5.63;2.80;;;;;;;;;;5076875;28;20543;-76
2022/10/19 06:02:25;;;;;;;2.87;0.80;;;;;;;;;;5073893;28;20451;-72
2022/10/19 06:04:53;;;;;;;11.53;2.43;;;;;;;;;;5073278;28;20476;-73
2022/10/19 06:07:20;;;;;;;6.20;1.00;;;;;;;;;;5074465;28;20609;-73
2022/10/19 06:09:48;;;;;;;3.33;0.63;;;;;;;;;;5074463;28;20448;-71
2022/10/19 06:12:19;;;;;;;3.90;0.93;;;;;;;;;;5073679;28;20558;-74
2022/10/19 06:14:46;;;;;;;1.93;0.70;;;;;;;;;;5055568;28;20468;-75
2022/10/19 06:17:13;;;;;;;4.67;0.97;;;;;;;;;;5054446;28;20464;-75
2022/10/19 06:19:40;;;;;;;6.13;1.00;;;;;;;;;;5054701;28;20530;-73
2022/10/19 06:22:11;;;;;;;5.33;1.00;;;;;;;;;;5054240;28;20453;-73
2022/10/19 06:24:38;;;;;;;8.10;1.10;;;;;;;;;;5062440;28;20717;-73
2022/10/19 06:27:06;;;;;;;8.93;1.17;;;;;;;;;;5073506;28;20491;-74
2022/10/19 06:29:40;;;;;;;3.63;1.07;;;;;;;;;;5073476;28;20562;-74
2022/10/19 06:32:07;;;;;;;4.47;2.20;;;;;;;;;;5057508;28;20467;-74
2022/10/19 06:34:34;;;;;;;5.33;0.90;;;;;;;;;;5061720;28;20468;-74
2022/10/19 06:37:01;;;;;;;3.30;0.80;;;;;;;;;;5072755;28;20564;-74
2022/10/19 06:39:32;;;;;;;6.40;1.50;;;;;;;;;;5078118;28;20555;-74
2022/10/19 06:41:59;;;;;;;6.90;2.23;;;;;;;;;;5078108;28;20482;-74
2022/10/19 06:44:29;;;;;;;6.27;2.67;;;;;;;;;;5077981;28;20916;-74
2022/10/19 06:46:56;;;;;;;6.20;1.73;;;;;;;;;;5078951;28;20542;-74
2022/10/19 06:49:23;;;;;;;2.30;0.97;;;;;;;;;;5072310;28;20804;-73
2022/10/19 06:51:50;;;;;;;9.30;1.20;;;;;;;;;;5056279;28;20864;-73
2022/10/19 06:54:17;;;;;;;3.17;0.70;;;;;;;;;;5055194;28;20508;-73
2022/10/19 06:56:46;;;;;;;3.50;0.90;;;;;;;;;;5054315;28;20506;-72
2022/10/19 06:59:16;;;;;;;8.93;1.20;;;;;;;;;;5055040;28;20464;-73
2022/10/19 07:01:45;;;;;;;2.90;0.90;;;;;;;;;;5053393;28;20749;-74
2022/10/19 07:04:14;;;;;;;4.17;0.87;;;;;;;;;;5067824;28;20676;-74
2022/10/19 07:06:44;;;;;;;1.87;0.63;;;;;;;;;;5075507;28;20543;-74
2022/10/19 07:09:11;;;;;;;6.40;1.63;;;;;;;;;;5062896;28;20461;-73
2022/10/19 07:11:39;;;;;;;4.03;1.20;;;;;;;;;;5056456;28;20473;-73
2022/10/19 07:14:07;;;;;;;8.07;1.93;;;;;;;;;;5075512;28;20445;-73
2022/10/19 07:16:37;;;;;;;4.67;2.03;;;;;;;;;;5059127;28;20884;-72
2022/10/19 07:19:04;;;;;;;6.80;1.53;;;;;;;;;;5058114;28;20517;-74
2022/10/19 07:21:40;;;;;;;5.57;1.33;;;;;;;;;;5056685;28;20584;-72
2022/10/19 07:24:13;;;;;;;3.90;1.20;;;;;;;;;;5057923;28;20928;-73
2022/10/19 07:26:41;;;;;;;8.10;2.60;;;;;;;;;;5057169;28;20441;-74
2022/10/19 07:29:09;;;;;;;4.17;2.10;;;;;;;;;;5053558;28;20461;-73
2022/10/19 07:31:40;;;;;;;7.87;1.33;;;;;;;;;;5053646;28;20454;-73
2022/10/19 07:34:07;;;;;;;7.90;1.30;;;;;;;;;;5067144;28;20491;-73
2022/10/19 07:36:35;;;;;;;9.60;1.30;;;;;;;;;;5055076;28;20861;-73
2022/10/19 07:39:09;;;;;;;5.13;0.80;;;;;;;;;;5056576;28;20457;-74
2022/10/19 07:41:43;;;;;;;5.43;1.10;;;;;;;;;;5058518;28;20472;-74
2022/10/19 07:44:11;;;;;;;4.73;1.17;;;;;;;;;;5056830;28;20461;-73
2022/10/19 07:46:39;;;;;;;8.33;1.40;;;;;;;;;;5071288;28;20536;-73
2022/10/19 07:49:15;;;;;;;5.67;1.20;;;;;;;;;;5092837;28;20456;-73
2022/10/19 07:51:42;;;;;;;4.80;1.00;;;;;;;;;;5082485;28;20470;-72
2022/10/19 07:54:13;;;;;;;6.57;1.53;;;;;;;;;;5078122;28;20447;-72
2022/10/19 07:56:41;;;;;;;8.10;1.30;;;;;;;;;;5094139;28;20512;-71
2022/10/19 07:59:26;;;;;;;5.20;1.17;;;;;;;;;;5085031;28;20853;-72
2022/10/19 08:01:53;;;;;;;10.37;1.67;;;;;;;;;;5070625;28;20511;-72
2022/10/19 08:04:29;;;;;;;7.37;1.90;;;;;;;;;;5073736;28;20463;-72
2022/10/19 08:06:57;;;;;;;7.90;1.33;;;;;;;;;;5072392;28;20488;-72
2022/10/19 08:09:24;;;;;;;6.53;2.03;;;;;;;;;;5072937;28;20440;-72
2022/10/19 08:11:51;;;;;;;6.40;1.27;;;;;;;;;;5071958;28;20479;-72
2022/10/19 08:14:19;;;;;;;4.87;0.90;;;;;;;;;;5073259;28;20966;-72
2022/10/19 08:16:46;;;;;;;5.07;1.00;;;;;;;;;;5072761;28;20468;-72
2022/10/19 08:19:17;;;;;;;6.20;1.00;;;;;;;;;;5071683;28;20529;-73
2022/10/19 08:21:47;;;;;;;9.10;1.43;;;;;;;;;;5071572;28;20883;-73
2022/10/19 08:24:17;;;;;;;10.43;1.30;;;;;;;;;;5072097;28;20456;-71
2022/10/19 08:26:44;;;;;;;5.00;1.73;;;;;;;;;;5072110;28;20463;-73
2022/10/19 08:29:13;;;;;;;5.30;1.93;;;;;;;;;;5068851;28;20941;-73
2022/10/19 08:31:45;;;;;;;6.80;1.00;;;;;;;;;;5065612;28;20468;-73
2022/10/19 08:34:14;;;;;;;8.90;1.60;;;;;;;;;;5071376;28;20455;-73
2022/10/19 08:36:43;;;;;;;7.13;1.83;;;;;;;;;;5070643;28;20535;-73
2022/10/19 08:39:17;;;;;;;10.50;1.23;;;;;;;;;;5068096;28;20441;-73
2022/10/19 08:41:53;;;;;;;5.67;1.10;;;;;;;;;;5071570;28;20714;-73
2022/10/19 08:44:39;;;;;;;7.27;1.47;;;;;;;;;;5072556;28;20521;-73
2022/10/19 08:47:11;;;;;;;6.33;1.70;;;;;;;;;;5071297;28;20669;-73
2022/10/19 08:49:40;;;;;;;5.67;1.90;;;;;;;;;;5071601;28;20448;-73
2022/10/19 08:52:12;;;;;;;8.80;1.87;;;;;;;;;;5070374;28;20468;-73
2022/10/19 08:54:43;;;;;;;5.30;1.30;;;;;;;;;;5070872;28;20480;-73
2022/10/19 08:57:15;;;;;;;7.77;1.57;;;;;;;;;;5071503;28;20468;-73
2022/10/19 08:59:45;;;;;;;6.90;1.47;;;;;;;;;;5072420;28;20950;-73
2022/10/19 09:02:19;;;;;;;8.10;1.80;;;;;;;;;;5070040;28;20468;-74
2022/10/19 09:04:48;;;;;;;9.07;1.33;;;;;;;;;;5072301;28;20744;-73
2022/10/19 09:07:27;;;;;;;7.57;1.33;;;;;;;;;;5071548;28;20488;-73
2022/10/19 09:09:55;;;;;;;4.20;1.97;;;;;;;;;;5075873;28;20542;-71
2022/10/19 09:12:31;;;;;;;6.63;1.67;;;;;;;;;;5071918;28;20481;-71
2022/10/19 09:15:01;;;;;;;4.90;1.43;;;;;;;;;;5064556;28;20459;-71
2022/10/19 09:17:35;;;;;;;6.57;1.77;;;;;;;;;;5083340;28;20600;-70
2022/10/19 09:20:29;;;;;;;5.00;2.07;;;;;;;;;;5076940;28;20472;-70
2022/10/19 09:23:05;;;;;;;4.30;1.40;;;;;;;;;;5071162;28;20470;-70
2022/10/19 09:25:35;;;;;;;6.50;1.17;;;;;;;;;;5074165;28;20453;-71
2022/10/19 09:28:09;;;;;;;9.70;1.70;;;;;;;;;;5074803;28;20518;-71
2022/10/19 09:30:41;;;;;;;21.57;2.27;;;;;;;;;;5075467;28;20468;-71
2022/10/19 09:33:13;;;;;;;9.20;1.77;;;;;;;;;;5075570;28;20532;-71
2022/10/19 09:35:44;;;;;;;120.23;61.13;;;;;;;;;;5075029;28;20459;-72
2022/10/19 09:38:15;;;;;;;12.57;4.43;;;;;;;;;;5083227;28;20565;-71
2022/10/19 09:40:42;;;;;;;6.43;1.73;;;;;;;;;;5074462;28;20460;-71
2022/10/19 09:43:18;;;;;;;9.83;1.80;;;;;;;;;;5071259;28;20460;-71
2022/10/19 09:45:48;;;;;;;6.57;1.50;;;;;;;;;;5073532;28;20542;-70
2022/10/19 09:48:19;;;;;;;6.00;1.10;;;;;;;;;;5072296;28;20491;-70
2022/10/19 09:50:53;;;;;;;5.00;1.83;;;;;;;;;;5063670;28;20548;-71
2022/10/19 09:53:23;;;;;;;6.43;1.60;;;;;;;;;;5072241;28;20477;-71
2022/10/19 09:55:54;;;;;;;9.67;1.73;;;;;;;;;;5071648;28;21007;-71
2022/10/19 09:58:25;;;;;;;9.53;2.03;;;;;;;;;;5075993;28;20673;-71
2022/10/19 10:00:57;;;;;;;8.97;1.80;;;;;;;;;;5074341;28;20759;-71
2022/10/19 10:03:38;;;;;;;7.70;1.90;;;;;;;;;;5070657;28;20464;-72
2022/10/19 10:06:09;;;;;;;9.50;1.40;;;;;;;;;;5069890;28;20476;-72
2022/10/19 10:08:56;;;;;;;5.13;1.33;;;;;;;;;;5071696;28;20920;-72
2022/10/19 10:11:38;;;;;;;6.50;1.77;;;;;;;;;;5069567;28;20821;-69
2022/10/19 10:14:18;;;;;;;9.77;1.60;;;;;;;;;;5070918;28;20460;-71
2022/10/19 10:16:45;;;;;;;6.90;1.33;;;;;;;;;;5066634;28;20464;-71
2022/10/19 10:19:15;;;;;;;3.77;1.40;;;;;;;;;;5069272;28;20456;-71
2022/10/19 10:21:53;;;;;;;3.13;1.23;;;;;;;;;;5073411;28;20496;-72
2022/10/19 10:24:21;;;;;;;10.67;1.60;;;;;;;;;;5070812;28;20465;-70
2022/10/19 10:26:50;;;;;;;4.70;1.43;;;;;;;;;;5070546;28;20873;-70
2022/10/19 10:29:23;;;;;;;9.50;4.33;;;;;;;;;;5068045;28;20458;-71
2022/10/19 10:31:52;;;;;;;10.30;1.90;;;;;;;;;;5073125;28;20808;-71
2022/10/19 10:34:28;;;;;;;5.47;1.63;;;;;;;;;;5072867;28;20445;-72
2022/10/19 10:36:59;;;;;;;3.40;1.30;;;;;;;;;;5070838;28;21190;-72
2022/10/19 10:39:27;;;;;;;3.73;0.90;;;;;;;;;;5069172;28;20511;-71
2022/10/19 10:41:57;;;;;;;5.00;1.90;;;;;;;;;;5072360;28;20560;-74
2022/10/19 10:44:38;;;;;;;11.83;1.50;;;;;;;;;;5072047;28;20475;-70
2022/10/19 10:47:16;;;;;;;6.70;1.40;;;;;;;;;;5070516;28;20493;-73
2022/10/19 10:49:59;;;;;;;3.87;1.10;;;;;;;;;;5070763;28;20778;-73
2022/10/19 10:52:29;;;;;;;6.57;1.20;;;;;;;;;;5071023;28;20495;-72
2022/10/19 10:55:17;;;;;;;4.37;1.30;;;;;;;;;;5074133;28;20862;-71
2022/10/19 10:57:52;;;;;;;4.40;1.40;;;;;;;;;;5071436;28;21072;-72
2022/10/19 11:00:20;;;;;;;4.60;1.10;;;;;;;;;;5073782;28;20467;-73
2022/10/19 11:02:51;;;;;;;4.67;2.37;;;;;;;;;;5073137;28;20460;-73
2022/10/19 11:05:21;;;;;;;7.63;1.70;;;;;;;;;;5070387;28;20464;-72
2022/10/19 11:07:50;;;;;;;6.07;2.00;;;;;;;;;;5072225;28;20484;-73
2022/10/19 11:10:23;;;;;;;5.53;1.40;;;;;;;;;;5053364;28;20468;-73
2022/10/19 11:12:54;;;;;;;5.57;1.20;;;;;;;;;;5067056;28;21105;-72
2022/10/19 11:15:30;;;;;;;3.20;0.90;;;;;;;;;;5071589;28;20757;-73
2022/10/19 11:18:00;;;;;;;2.67;1.03;;;;;;;;;;5072922;28;20487;-73
2022/10/19 11:20:30;;;;;;;5.73;1.20;;;;;;;;;;5067573;28;20457;-73
2022/10/19 11:23:02;;;;;;;10.93;3.27;;;;;;;;;;5067116;28;20492;-70
2022/10/19 11:25:36;;;;;;;3.17;1.20;;;;;;;;;;5057840;28;20484;-72
2022/10/19 11:28:23;;;;;;;3.73;0.90;;;;;;;;;;5060231;28;20492;-73
2022/10/19 11:30:57;;;;;;;4.70;1.40;;;;;;;;;;5068399;28;20448;-71
2022/10/19 11:33:37;;;;;;;4.93;1.47;;;;;;;;;;5068224;28;20465;-73
2022/10/19 11:36:11;;;;;;;6.30;0.97;;;;;;;;;;5072228;28;20555;-71
2022/10/19 11:38:44;;;;;;;4.90;1.33;;;;;;;;;;5072191;28;20472;-72
2022/10/19 11:41:19;;;;;;;4.63;1.10;;;;;;;;;;5074019;28;20844;-71
2022/10/19 11:43:53;;;;;;;6.20;1.67;;;;;;;;;;5072695;28;20448;-72
2022/10/19 11:46:25;;;;;;;3.30;0.80;;;;;;;;;;5071366;28;21059;-71
2022/10/19 11:49:16;;;;;;;3.33;1.13;;;;;;;;;;5073796;28;20483;-71
2022/10/19 11:51:50;;;;;;;4.23;1.53;;;;;;;;;;5073583;28;20900;-72
2022/10/19 11:54:26;;;;;;;3.40;1.03;;;;;;;;;;5072035;28;20454;-71
2022/10/19 11:56:57;;;;;;;7.03;1.13;;;;;;;;;;5073247;28;21006;-72
2022/10/19 11:59:29;;;;;;;3.10;1.73;;;;;;;;;;5073412;28;20459;-70
2022/10/19 12:02:06;;;;;;;3.50;0.87;;;;;;;;;;5072601;28;20884;-73
2022/10/19 12:04:49;;;;;;;10.87;2.40;;;;;;;;;;5070482;28;20458;-74
2022/10/19 12:07:41;;;;;;;4.90;2.40;;;;;;;;;;5066256;28;20504;-72
2022/10/19 12:10:18;;;;;;;2.60;0.90;;;;;;;;;;5066893;28;20507;-71
2022/10/19 12:12:46;;;;;;;12.13;3.30;;;;;;;;;;5073609;28;20467;-73
2022/10/19 12:15:23;;;;;;;6.13;1.77;;;;;;;;;;5074017;28;20575;-74
2022/10/19 12:17:51;;;;;;;11.40;2.80;;;;;;;;;;5051857;28;20465;-71
2022/10/19 12:20:22;;;;;;;1.70;0.77;;;;;;;;;;5056679;28;20491;-72
2022/10/19 12:22:50;;;;;;;4.53;1.17;;;;;;;;;;5072058;28;20464;-70
2022/10/19 12:25:22;;;;;;;6.00;2.40;;;;;;;;;;5072313;28;20533;-71
2022/10/19 12:27:53;;;;;;;5.40;0.90;;;;;;;;;;5071744;28;20481;-71
2022/10/19 12:30:22;;;;;;;5.07;1.30;;;;;;;;;;5063722;28;20468;-71
2022/10/19 12:33:03;;;;;;;6.30;1.37;;;;;;;;;;5052438;28;20535;-73
2022/10/19 12:36:02;;;;;;;7.00;1.87;;;;;;;;;;5052676;28;20610;-71
2022/10/19 12:38:38;;;;;;;4.47;1.10;;;;;;;;;;5053341;28;20879;-71
2022/10/19 12:41:07;;;;;;;7.43;1.40;;;;;;;;;;5066849;28;20464;-70
2022/10/19 12:43:39;;;;;;;4.70;1.00;;;;;;;;;;5070454;28;20464;-71
2022/10/19 12:46:12;;;;;;;7.90;1.10;;;;;;;;;;5071815;28;20463;-71
2022/10/19 12:48:39;;;;;;;8.97;1.20;;;;;;;;;;5071096;28;20484;-72
2022/10/19 12:51:11;;;;;;;7.07;1.23;;;;;;;;;;5071662;28;20704;-72
2022/10/19 12:53:40;;;;;;;5.10;1.27;;;;;;;;;;5072330;28;20480;-72
2022/10/19 12:56:08;;;;;;;6.23;1.63;;;;;;;;;;5068578;28;20468;-72
2022/10/19 12:58:39;;;;;;;6.07;1.43;;;;;;;;;;5073646;28;20499;-72
2022/10/19 13:01:06;;;;;;;3.33;0.87;;;;;;;;;;5070774;28;20471;-70
2022/10/19 13:03:34;;;;;;;4.17;1.60;;;;;;;;;;5072703;28;20448;-71
2022/10/19 13:06:04;;;;;;;2.70;1.00;;;;;;;;;;5072492;28;20464;-72
2022/10/19 13:08:40;;;;;;;7.07;1.50;;;;;;;;;;5067482;28;20480;-72
2022/10/19 13:11:13;;;;;;;6.70;3.17;;;;;;;;;;5070019;28;20541;-73
2022/10/19 13:14:00;;;;;;;2.30;0.90;;;;;;;;;;5070926;28;20499;-72
2022/10/19 13:16:41;;;;;;;7.90;1.00;;;;;;;;;;5069321;28;20490;-72
2022/10/19 13:19:19;;;;;;;7.70;1.90;;;;;;;;;;5066442;28;20457;-72
2022/10/19 13:21:53;;;;;;;3.30;1.37;;;;;;;;;;5069628;28;20473;-72
2022/10/19 13:24:29;;;;;;;4.93;0.80;;;;;;;;;;5066525;28;20452;-72
2022/10/19 13:27:15;;;;;;;12.27;3.73;;;;;;;;;;5071983;28;20673;-72
2022/10/19 13:29:43;;;;;;;5.00;0.97;;;;;;;;;;5071151;28;20448;-72
2022/10/19 13:32:30;;;;;;;2.67;0.80;;;;;;;;;;5070951;28;21119;-73
2022/10/19 13:35:13;;;;;;;3.43;1.20;;;;;;;;;;5071856;28;20537;-72
2022/10/19 13:37:40;;;;;;;7.30;1.47;;;;;;;;;;5072444;28;20456;-72
2022/10/19 13:40:19;;;;;;;3.73;1.10;;;;;;;;;;5070020;28;20449;-72
2022/10/19 13:42:59;;;;;;;3.60;1.23;;;;;;;;;;5070481;28;20448;-73
2022/10/19 13:45:36;;;;;;;3.70;1.60;;;;;;;;;;5069079;28;20535;-72
2022/10/19 13:48:17;;;;;;;3.70;1.33;;;;;;;;;;5068552;28;20519;-72
2022/10/19 13:50:50;;;;;;;12.17;4.97;;;;;;;;;;5072248;28;20514;-72
2022/10/19 13:53:32;;;;;;;11.50;5.50;;;;;;;;;;5070798;28;20540;-72
2022/10/19 13:56:17;;;;;;;5.40;1.30;;;;;;;;;;5067672;28;20459;-71
2022/10/19 13:58:58;;;;;;;4.20;0.83;;;;;;;;;;5070962;28;20459;-72
2022/10/19 14:01:30;;;;;;;6.40;1.23;;;;;;;;;;5071511;28;20444;-70
2022/10/19 14:04:11;;;;;;;3.20;0.90;;;;;;;;;;5071513;28;20488;-70
2022/10/19 14:06:41;;;;;;;4.80;0.90;;;;;;;;;;5070919;28;20453;-70
2022/10/19 14:09:35;;;;;;;5.97;1.10;;;;;;;;;;5071126;28;20499;-70
2022/10/19 14:12:06;;;;;;;6.07;0.97;;;;;;;;;;5074476;28;20946;-70
2022/10/19 14:14:47;;;;;;;3.63;0.90;;;;;;;;;;5074217;28;20504;-70
2022/10/19 14:17:17;;;;;;;5.53;1.10;;;;;;;;;;5071180;28;20456;-70
2022/10/19 14:19:46;;;;;;;3.70;1.13;;;;;;;;;;5067790;28;20437;-70
2022/10/19 14:22:28;;;;;;;3.33;1.37;;;;;;;;;;5063199;28;20948;-71
2022/10/19 14:25:06;;;;;;;6.23;1.00;;;;;;;;;;5075140;28;20444;-70
2022/10/19 14:27:34;;;;;;;3.10;0.70;;;;;;;;;;5069138;28;20488;-70
2022/10/19 14:30:05;;;;;;;4.47;0.80;;;;;;;;;;5073026;28;20456;-71
2022/10/19 14:32:37;;;;;;;8.33;1.37;;;;;;;;;;5071118;28;20958;-71
2022/10/19 14:35:05;;;;;;;6.73;1.17;;;;;;;;;;5075041;28;20468;-70
2022/10/19 14:37:32;;;;;;;3.93;0.93;;;;;;;;;;5070866;28;20472;-70
2022/10/19 14:40:01;;;;;;;5.43;1.20;;;;;;;;;;5074037;28;20775;-70
2022/10/19 14:42:36;;;;;;;9.00;3.77;;;;;;;;;;5073212;28;20737;-70
2022/10/19 14:45:04;;;;;;;3.50;1.00;;;;;;;;;;5071480;28;20589;-70
2022/10/19 14:47:31;;;;;;;3.10;0.97;;;;;;;;;;5070385;28;20582;-70
2022/10/19 14:49:59;;;;;;;6.13;1.70;;;;;;;;;;5069325;28;20460;-70
2022/10/19 14:52:31;;;;;;;8.63;1.47;;;;;;;;;;5069196;28;20534;-71
2022/10/19 14:55:00;;;;;;;4.27;1.17;;;;;;;;;;5072584;28;20469;-71
2022/10/19 14:57:42;;;;;;;6.93;0.97;;;;;;;;;;5069113;28;20627;-70
2022/10/19 15:00:17;;;;;;;3.63;1.10;;;;;;;;;;5071486;28;20523;-70
2022/10/19 15:02:47;;;;;;;3.40;0.70;;;;;;;;;;5067042;28;20931;-70
2022/10/19 15:05:19;;;;;;;5.00;1.53;;;;;;;;;;5072572;28;20559;-70